Main page
METAR-TAF:

METAR-TAF

Airports :

Almería Airport

Almería, Spain

latitude: 36-51N, longitude: 002-23W, elevation: 15 m

Current weather observation

The report was made 20 minutes ago, at 22:30 UTC
Wind 2 kt from variable directions
Temperature 13°C
Humidity 82%
Pressure 1021 hPa
Visibility 10 km or more
Broken clouds at a height of 2300 ft

METAR: LEAM 242230Z AUTO VRB02KT 9999 BKN023 13/10 Q1021

Time: 23:50 (22:50 UTC)

Forecast

The report was made 2 hours and 50 minutes ago, at 20:00 UTC
Forecast valid from 24 at 21 UTC to 25 at 21 UTC
Wind 10 kt from the North
Visibility 10 km or more
Few clouds at a height of 3000 ft
Becoming
from 25 at 08 UTC to 25 at 10 UTC
Wind 6 kt from the South/Southeast
Becoming
from 25 at 19 UTC to 25 at 21 UTC
Wind 10 kt from the North

TAF: LEAM 242000Z 2421/2521 35010KT 9999 FEW030 TX20/2513Z TN10/2506Z BECMG 2508/2510 16006KT BECMG 2519/2521 35010KT

Weather observations and forecasts of more than 4000 airports (METAR and TAF reports).

The available stations are represented by yellow and red dots on the map.

Hover mouse over dot to see the name of the station.

Then click to see weather observations and forecasts.

To change the map : click on the green buttons with a black cross to zoom in, on the green button with a dash to zoom out, or on the green arrows for adjacent maps.


METAR-TAF: